createdAt,value
2018-09-19T00:02:09.624Z,13.90
2018-09-19T00:04:37.657Z,11.03
2018-09-19T00:07:05.690Z,12.60
2018-09-19T00:09:33.721Z,12.07
2018-09-19T00:12:01.780Z,13.73
2018-09-19T00:14:29.776Z,12.43
2018-09-19T00:16:57.789Z,13.70
2018-09-19T00:19:25.797Z,11.67
2018-09-19T00:21:53.870Z,12.73
2018-09-19T00:24:21.865Z,13.30
2018-09-19T00:26:49.905Z,13.00
2018-09-19T00:29:17.984Z,12.10
2018-09-19T00:31:45.967Z,11.67
2018-09-19T00:34:13.985Z,14.27
2018-09-19T00:36:42.021Z,14.93
2018-09-19T00:39:10.259Z,18.20
2018-09-19T00:41:38.395Z,18.80
2018-09-19T00:44:06.418Z,20.30
2018-09-19T00:46:34.472Z,19.93
2018-09-19T00:49:02.460Z,21.17
2018-09-19T00:51:30.511Z,18.53
2018-09-19T00:53:58.542Z,18.47
2018-09-19T00:56:27.562Z,18.07
2018-09-19T00:58:55.581Z,17.23
2018-09-19T01:01:23.576Z,15.97
2018-09-19T01:03:51.703Z,15.00
2018-09-19T01:06:19.754Z,14.87
2018-09-19T01:08:47.701Z,14.33
2018-09-19T01:11:15.737Z,13.87
2018-09-19T01:13:44.746Z,15.47
2018-09-19T01:16:12.992Z,15.17
2018-09-19T01:18:41.017Z,15.10
2018-09-19T01:21:09.045Z,15.30
2018-09-19T01:23:37.064Z,15.53
2018-09-19T01:26:05.084Z,14.77
2018-09-19T01:28:33.344Z,15.30
2018-09-19T01:31:01.361Z,21.67
2018-09-19T01:33:29.392Z,24.00
2018-09-19T01:35:57.383Z,24.53
2018-09-19T01:38:25.429Z,24.53
2018-09-19T01:40:53.405Z,22.40
2018-09-19T01:43:21.471Z,26.63
2018-09-19T01:45:49.481Z,27.77
2018-09-19T01:48:17.473Z,26.70
2018-09-19T01:50:45.466Z,25.23
2018-09-19T01:53:13.508Z,23.73
2018-09-19T01:55:41.570Z,23.80
2018-09-19T01:58:09.640Z,23.20
2018-09-19T02:00:37.676Z,20.45
2018-09-19T02:03:05.729Z,19.17
2018-09-19T02:05:33.756Z,17.87
2018-09-19T02:08:01.804Z,17.10
2018-09-19T02:10:29.861Z,16.50
2018-09-19T02:12:57.861Z,16.57
2018-09-19T02:15:25.897Z,14.90
2018-09-19T02:17:53.929Z,16.17
2018-09-19T02:20:21.961Z,15.93
2018-09-19T02:22:50.771Z,15.37
2018-09-19T02:25:18.892Z,12.83
2018-09-19T02:27:46.904Z,13.63
2018-09-19T02:30:14.939Z,12.83
2018-09-19T02:32:42.948Z,13.37
2018-09-19T02:35:10.996Z,14.27
2018-09-19T02:37:38.993Z,12.23
2018-09-19T02:40:07.119Z,11.23
2018-09-19T02:42:35.348Z,11.80
2018-09-19T02:45:03.437Z,11.60
2018-09-19T02:47:31.489Z,11.60
2018-09-19T02:49:59.496Z,11.87
2018-09-19T02:52:27.486Z,11.37
2018-09-19T02:54:55.514Z,11.33
2018-09-19T02:57:23.528Z,10.47
2018-09-19T02:59:51.557Z,10.40
2018-09-19T03:02:19.552Z,10.93
2018-09-19T03:04:47.543Z,11.50
2018-09-19T03:07:15.536Z,10.03
2018-09-19T03:09:43.572Z,10.97
2018-09-19T03:12:11.608Z,12.30
2018-09-19T03:14:39.630Z,12.53
2018-09-19T03:17:07.680Z,13.40
2018-09-19T03:19:35.703Z,14.97
2018-09-19T03:22:03.757Z,15.70
2018-09-19T03:24:31.748Z,14.10
2018-09-19T03:26:59.827Z,14.50
2018-09-19T03:29:27.937Z,14.30
2018-09-19T03:31:55.948Z,15.00
2018-09-19T03:34:23.987Z,14.70
2018-09-19T03:36:52.394Z,14.70
2018-09-19T03:39:20.397Z,15.83
2018-09-19T03:41:48.418Z,13.50
2018-09-19T03:44:16.447Z,12.57
2018-09-19T03:46:44.475Z,13.30
2018-09-19T03:49:12.518Z,13.00
2018-09-19T03:51:40.559Z,13.40
2018-09-19T03:54:08.877Z,11.30
2018-09-19T03:56:36.963Z,13.30
2018-09-19T03:59:06.150Z,12.83
2018-09-19T04:01:34.208Z,13.03
2018-09-19T04:04:02.214Z,14.17
2018-09-19T04:06:30.228Z,12.80
2018-09-19T04:08:58.217Z,12.70
2018-09-19T04:11:26.378Z,10.77
2018-09-19T04:13:54.417Z,12.50
2018-09-19T04:16:22.447Z,12.30
2018-09-19T04:18:50.539Z,9.40
2018-09-19T04:21:18.660Z,9.23
2018-09-19T04:23:46.723Z,11.20
2018-09-19T04:26:14.734Z,12.70
2018-09-19T04:28:42.772Z,12.20
2018-09-19T04:31:10.789Z,14.57
2018-09-19T04:33:38.795Z,14.20
2018-09-19T04:36:06.985Z,15.80
2018-09-19T04:38:35.132Z,14.97
2018-09-19T04:41:03.097Z,16.20
2018-09-19T04:43:31.100Z,15.10
2018-09-19T04:45:59.138Z,17.07
2018-09-19T04:48:27.152Z,16.17
2018-09-19T04:50:55.181Z,16.60
2018-09-19T04:53:23.200Z,16.50
2018-09-19T04:55:51.261Z,17.27
2018-09-19T04:58:19.271Z,17.93
2018-09-19T05:00:47.330Z,16.27
2018-09-19T05:03:15.320Z,15.33
2018-09-19T05:05:43.469Z,15.00
2018-09-19T05:08:11.454Z,15.30
2018-09-19T05:10:39.517Z,14.83
2018-09-19T05:13:07.517Z,17.20
2018-09-19T05:15:35.526Z,14.83
2018-09-19T05:18:03.538Z,13.37
2018-09-19T05:20:31.576Z,12.43
2018-09-19T05:22:59.577Z,12.47
2018-09-19T05:25:27.599Z,12.73
2018-09-19T05:27:55.605Z,13.93
2018-09-19T05:30:24.704Z,14.40
2018-09-19T05:32:52.704Z,13.57
2018-09-19T05:35:20.762Z,14.70
2018-09-19T05:37:48.784Z,15.93
2018-09-19T05:40:16.808Z,14.93
2018-09-19T05:42:44.804Z,14.63
2018-09-19T05:45:12.807Z,15.80
2018-09-19T05:47:40.831Z,14.53
2018-09-19T05:50:08.957Z,14.30
2018-09-19T05:52:36.962Z,12.77
2018-09-19T05:55:04.986Z,10.87
2018-09-19T05:57:33.001Z,9.80
2018-09-19T06:00:01.026Z,8.73
2018-09-19T06:02:29.092Z,8.80
2018-09-19T06:04:57.140Z,8.80
2018-09-19T06:07:25.182Z,7.73
2018-09-19T06:09:53.168Z,8.47
2018-09-19T06:12:21.244Z,7.20
2018-09-19T06:14:49.264Z,6.70
2018-09-19T06:17:17.281Z,8.13
2018-09-19T06:19:45.278Z,6.03
2018-09-19T06:22:16.258Z,7.07
2018-09-19T06:24:44.292Z,6.10
2018-09-19T06:27:12.389Z,6.90
2018-09-19T06:29:40.401Z,6.90
2018-09-19T06:32:08.439Z,6.87
2018-09-19T06:34:36.417Z,5.90
2018-09-19T06:37:04.806Z,6.13
2018-09-19T06:39:32.793Z,6.20
2018-09-19T06:42:00.846Z,5.73
2018-09-19T06:44:28.898Z,4.90
2018-09-19T06:46:56.953Z,4.33
2018-09-19T06:49:24.885Z,4.30
2018-09-19T06:51:52.938Z,4.20
2018-09-19T06:54:21.894Z,5.20
2018-09-19T06:56:49.938Z,5.67
2018-09-19T06:59:17.937Z,4.67
2018-09-19T07:01:45.962Z,4.33
2018-09-19T07:04:13.941Z,4.57
2018-09-19T07:06:42.001Z,4.60
2018-09-19T07:09:10.681Z,5.80
2018-09-19T07:11:38.882Z,5.60
2018-09-19T07:14:07.128Z,4.63
2018-09-19T07:16:35.161Z,4.57
2018-09-19T07:19:03.298Z,4.90
2018-09-19T07:21:31.198Z,3.90
2018-09-19T07:23:59.185Z,4.90
2018-09-19T07:26:27.290Z,4.90
2018-09-19T07:28:55.287Z,4.10
2018-09-19T07:31:23.286Z,4.27
2018-09-19T07:33:51.260Z,4.50
2018-09-19T07:36:19.256Z,4.30
2018-09-19T07:38:47.262Z,3.90
2018-09-19T07:41:15.306Z,4.75
2018-09-19T07:43:43.330Z,3.33
2018-09-19T07:46:11.314Z,3.12
2018-09-19T07:48:39.340Z,3.17
2018-09-19T07:51:07.320Z,3.52
2018-09-19T07:53:36.104Z,3.72
2018-09-19T07:56:04.651Z,3.12
2018-09-19T07:58:32.964Z,3.20
2018-09-19T08:01:01.014Z,3.47
2018-09-19T08:03:29.052Z,3.35
2018-09-19T08:05:57.040Z,3.77
2018-09-19T08:08:25.028Z,2.47
2018-09-19T08:10:53.473Z,3.10
2018-09-19T08:13:21.465Z,2.50
2018-09-19T08:15:49.512Z,3.12
2018-09-19T08:18:17.499Z,2.40
2018-09-19T08:20:45.525Z,2.97
2018-09-19T08:23:13.507Z,2.95
2018-09-19T08:25:41.502Z,2.75
2018-09-19T08:28:09.498Z,2.37
2018-09-19T08:30:37.515Z,2.95
2018-09-19T08:33:05.520Z,3.00
2018-09-19T08:35:33.528Z,2.40
2018-09-19T08:38:01.549Z,2.27
2018-09-19T08:40:29.574Z,3.30
2018-09-19T08:42:57.588Z,2.53
2018-09-19T08:45:26.481Z,2.13
2018-09-19T08:47:54.493Z,2.00
2018-09-19T08:50:22.534Z,2.20
2018-09-19T08:52:50.525Z,1.80
2018-09-19T08:55:18.575Z,2.60
2018-09-19T08:57:46.558Z,3.20
2018-09-19T09:00:14.560Z,2.00
2018-09-19T09:02:42.655Z,2.30
2018-09-19T09:05:10.733Z,2.77
2018-09-19T09:07:38.749Z,2.33
2018-09-19T09:10:06.797Z,2.60
2018-09-19T09:12:34.853Z,1.50
2018-09-19T09:15:02.886Z,2.47
2018-09-19T09:17:30.889Z,1.97
2018-09-19T09:19:58.923Z,1.83
2018-09-19T09:22:26.940Z,2.40
2018-09-19T09:24:55.068Z,1.70
2018-09-19T09:27:23.158Z,2.03
2018-09-19T09:29:51.068Z,2.30
2018-09-19T09:32:19.134Z,1.80
2018-09-19T09:34:47.204Z,2.23
2018-09-19T09:37:15.197Z,1.80
2018-09-19T09:39:43.284Z,2.40
2018-09-19T09:42:11.329Z,2.30
2018-09-19T09:44:39.384Z,2.67
2018-09-19T09:47:07.401Z,2.27
2018-09-19T09:49:35.473Z,2.67
2018-09-19T09:52:03.498Z,2.10
2018-09-19T09:54:31.525Z,2.50
2018-09-19T09:56:59.690Z,1.87
2018-09-19T09:59:27.726Z,2.33
2018-09-19T10:01:55.748Z,3.07
2018-09-19T10:04:23.778Z,3.03
2018-09-19T10:06:51.788Z,2.50
2018-09-19T10:09:19.825Z,2.97
2018-09-19T10:11:48.020Z,2.27
2018-09-19T10:14:16.005Z,3.17
2018-09-19T10:16:44.057Z,2.50
2018-09-19T10:19:12.098Z,3.13
2018-09-19T10:21:40.140Z,2.80
2018-09-19T10:24:08.343Z,2.93
2018-09-19T10:26:36.349Z,2.67
2018-09-19T10:29:04.393Z,3.10
2018-09-19T10:31:32.420Z,2.70
2018-09-19T10:34:00.449Z,3.17
2018-09-19T10:36:28.466Z,3.10
2018-09-19T10:38:56.477Z,2.77
2018-09-19T10:41:24.498Z,3.57
2018-09-19T10:43:52.536Z,2.63
2018-09-19T10:46:20.535Z,3.40
2018-09-19T10:48:48.814Z,3.57
2018-09-19T10:51:16.841Z,4.37
2018-09-19T10:53:44.841Z,3.50
2018-09-19T10:56:12.858Z,3.27
2018-09-19T10:58:40.865Z,3.40
2018-09-19T11:01:08.876Z,3.50
2018-09-19T11:03:36.912Z,3.97
2018-09-19T11:06:05.105Z,3.57
2018-09-19T11:08:33.157Z,3.60
2018-09-19T11:11:01.156Z,3.80
2018-09-19T11:13:29.203Z,3.53
2018-09-19T11:15:57.248Z,3.27
2018-09-19T11:18:25.320Z,3.40
2018-09-19T11:20:53.453Z,3.80
2018-09-19T11:23:21.521Z,3.80
2018-09-19T11:25:49.528Z,4.13
2018-09-19T11:28:17.566Z,3.87
2018-09-19T11:30:45.696Z,4.30
2018-09-19T11:33:13.713Z,4.30
2018-09-19T11:35:41.735Z,4.40
2018-09-19T11:38:09.800Z,3.97
2018-09-19T11:40:37.821Z,3.87
2018-09-19T11:43:06.265Z,4.50
2018-09-19T11:45:34.305Z,4.40
2018-09-19T11:48:02.389Z,4.53
2018-09-19T11:50:30.431Z,4.20
2018-09-19T11:52:58.462Z,4.27
2018-09-19T11:55:26.489Z,4.47
2018-09-19T11:57:54.647Z,3.43
2018-09-19T12:00:22.645Z,3.97
2018-09-19T12:02:50.721Z,4.30
2018-09-19T12:05:18.761Z,3.90
2018-09-19T12:07:46.796Z,4.40
2018-09-19T12:10:15.065Z,4.40
2018-09-19T12:12:43.137Z,3.77
2018-09-19T12:15:11.262Z,3.10
2018-09-19T12:17:39.304Z,4.27
2018-09-19T12:20:07.361Z,3.47
2018-09-19T12:22:35.363Z,4.00
2018-09-19T12:25:03.745Z,3.50
2018-09-19T12:27:31.769Z,4.07
2018-09-19T12:29:59.824Z,3.60
2018-09-19T12:32:27.826Z,4.10
2018-09-19T12:34:55.874Z,4.93
2018-09-19T12:37:23.908Z,3.80
2018-09-19T12:39:51.935Z,4.67
2018-09-19T12:42:19.937Z,4.27
2018-09-19T12:44:47.982Z,3.80
2018-09-19T12:47:15.977Z,4.53
2018-09-19T12:49:44.049Z,3.77
2018-09-19T12:52:12.089Z,4.20
2018-09-19T12:54:40.092Z,4.10
2018-09-19T12:57:08.097Z,4.10
2018-09-19T12:59:36.124Z,3.00
2018-09-19T13:02:04.322Z,3.70
2018-09-19T13:04:32.352Z,3.90
2018-09-19T13:07:00.364Z,3.83
2018-09-19T13:09:28.413Z,4.10
2018-09-19T13:11:56.445Z,3.40
2018-09-19T13:14:24.610Z,3.77
2018-09-19T13:16:52.619Z,4.00
2018-09-19T13:19:20.617Z,3.67
2018-09-19T13:21:48.648Z,3.60
2018-09-19T13:24:16.672Z,3.83
2018-09-19T13:26:44.721Z,5.23
2018-09-19T13:31:52.792Z,4.77
2018-09-19T13:34:20.820Z,4.13
2018-09-19T13:36:48.840Z,4.50
2018-09-19T13:39:16.900Z,4.10
2018-09-19T13:41:44.940Z,3.43
2018-09-19T13:44:12.937Z,4.03
2018-09-19T13:46:41.021Z,4.93
2018-09-19T13:49:18.358Z,4.63
2018-09-19T13:51:46.434Z,4.50
2018-09-19T13:54:14.545Z,3.87
2018-09-19T13:56:42.598Z,4.47
2018-09-19T13:59:10.592Z,3.70
2018-09-19T14:01:38.577Z,3.90
2018-09-19T14:04:06.695Z,4.53
2018-09-19T14:06:34.677Z,3.50
2018-09-19T14:09:02.861Z,3.60
2018-09-19T14:11:30.918Z,4.00
2018-09-19T14:13:58.940Z,3.90
2018-09-19T14:16:27.050Z,4.33
2018-09-19T14:18:55.090Z,5.40
2018-09-19T14:21:23.118Z,4.10
2018-09-19T14:23:51.121Z,3.63
2018-09-19T14:26:19.159Z,3.77
2018-09-19T14:28:47.189Z,3.67
2018-09-19T14:31:15.212Z,4.27
2018-09-19T14:33:43.209Z,4.40
2018-09-19T14:36:11.239Z,4.10
2018-09-19T14:38:39.272Z,3.57
2018-09-19T14:41:07.282Z,4.00
2018-09-19T14:43:35.272Z,3.67
2018-09-19T14:46:03.280Z,4.13
2018-09-19T14:48:31.309Z,4.00
2018-09-19T14:50:59.319Z,3.87
2018-09-19T14:53:27.324Z,3.50
2018-09-19T14:55:55.349Z,3.80
2018-09-19T14:58:23.368Z,3.43
2018-09-19T15:00:51.418Z,4.00
2018-09-19T15:03:19.453Z,3.90
2018-09-19T15:05:47.465Z,3.90
2018-09-19T15:08:15.526Z,3.97
2018-09-19T15:10:43.549Z,4.27
2018-09-19T15:13:11.585Z,3.63
2018-09-19T15:15:39.581Z,3.30
2018-09-19T15:18:07.669Z,3.90
2018-09-19T15:20:35.652Z,3.60
2018-09-19T15:23:03.692Z,3.20
2018-09-19T15:25:31.715Z,3.00
2018-09-19T15:27:59.737Z,2.73
2018-09-19T15:30:27.754Z,3.40
2018-09-19T15:32:55.782Z,3.20
2018-09-19T15:35:23.802Z,3.40
2018-09-19T15:37:51.805Z,3.23
2018-09-19T15:40:19.825Z,4.17
2018-09-19T15:42:47.928Z,3.40
2018-09-19T15:45:15.948Z,3.70
2018-09-19T15:47:43.985Z,3.50
2018-09-19T15:50:12.042Z,4.27
2018-09-19T15:52:40.072Z,3.93
2018-09-19T15:55:08.110Z,3.33
2018-09-19T15:57:36.140Z,3.23
2018-09-19T16:00:04.896Z,3.77
2018-09-19T16:02:33.001Z,3.50
2018-09-19T16:05:01.024Z,4.10
2018-09-19T16:07:29.033Z,3.60
2018-09-19T16:09:57.045Z,3.73
2018-09-19T16:12:25.340Z,3.70
2018-09-19T16:14:53.417Z,3.60
2018-09-19T16:17:21.417Z,4.10
2018-09-19T16:19:49.421Z,4.00
2018-09-19T16:22:17.456Z,3.53
2018-09-19T16:24:45.472Z,3.70
2018-09-19T16:27:14.301Z,4.10
2018-09-19T16:29:42.363Z,4.13
2018-09-19T16:32:10.372Z,4.17
2018-09-19T16:34:39.463Z,3.87
2018-09-19T16:37:07.478Z,3.97
2018-09-19T16:39:35.510Z,3.60
2018-09-19T16:42:04.782Z,3.90
2018-09-19T16:44:32.821Z,3.90
2018-09-19T16:47:00.957Z,3.80
2018-09-19T16:49:29.004Z,3.87
2018-09-19T16:51:57.068Z,4.97
2018-09-19T16:54:25.081Z,3.80
2018-09-19T16:56:53.091Z,4.23
2018-09-19T16:59:21.148Z,3.77
2018-09-19T17:01:49.185Z,3.60
2018-09-19T17:04:17.201Z,4.07
2018-09-19T17:06:45.209Z,4.63
2018-09-19T17:09:13.313Z,3.90
2018-09-19T17:11:41.419Z,4.80
2018-09-19T17:14:09.460Z,4.70
2018-09-19T17:16:37.484Z,3.90
2018-09-19T17:19:05.502Z,4.17
2018-09-19T17:21:33.546Z,4.30
2018-09-19T17:24:01.568Z,3.97
2018-09-19T17:26:29.973Z,3.83
2018-09-19T17:28:57.992Z,3.90
2018-09-19T17:31:26.005Z,4.10
2018-09-19T17:33:54.115Z,4.30
2018-09-19T17:36:22.145Z,3.40
2018-09-19T17:38:50.145Z,4.40
2018-09-19T17:41:18.199Z,4.20
2018-09-19T17:43:46.186Z,3.97
2018-09-19T17:46:14.200Z,4.10
2018-09-19T17:48:42.205Z,3.83
2018-09-19T17:51:10.272Z,4.27
2018-09-19T17:53:38.327Z,4.07
2018-09-19T17:56:06.372Z,4.17
2018-09-19T17:58:34.485Z,3.70
2018-09-19T18:01:02.517Z,4.90
2018-09-19T18:03:30.561Z,4.30
2018-09-19T18:05:58.584Z,4.60
2018-09-19T18:08:26.641Z,4.27
2018-09-19T18:10:54.759Z,3.77
2018-09-19T18:13:22.813Z,4.33
2018-09-19T18:15:50.828Z,3.67
2018-09-19T18:18:18.887Z,3.77
2018-09-19T18:20:46.910Z,4.80
2018-09-19T18:23:16.029Z,4.27
2018-09-19T18:25:44.060Z,4.70
2018-09-19T18:28:12.084Z,4.30
2018-09-19T18:30:40.132Z,3.47
2018-09-19T18:33:08.142Z,4.70
2018-09-19T18:35:36.197Z,3.83
2018-09-19T18:38:04.280Z,3.97
2018-09-19T18:40:32.329Z,4.20
2018-09-19T18:43:00.367Z,3.70
2018-09-19T18:45:28.418Z,3.47
2018-09-19T18:47:56.480Z,4.30
2018-09-19T18:50:24.800Z,4.40
2018-09-19T18:52:52.839Z,4.67
2018-09-19T18:55:20.880Z,4.13
2018-09-19T18:57:48.878Z,5.07
2018-09-19T19:00:17.105Z,4.07
2018-09-19T19:02:45.212Z,4.60
2018-09-19T19:05:13.368Z,3.80
2018-09-19T19:07:42.426Z,4.30
2018-09-19T19:10:10.446Z,4.60
2018-09-19T19:12:38.496Z,4.77
2018-09-19T19:15:07.601Z,4.07
2018-09-19T19:17:35.658Z,4.47
2018-09-19T19:20:03.701Z,4.77
2018-09-19T19:22:31.805Z,4.77
2018-09-19T19:24:59.825Z,4.37
2018-09-19T19:27:27.888Z,4.63
2018-09-19T19:29:56.007Z,5.00
2018-09-19T19:32:24.262Z,4.70
2018-09-19T19:34:52.281Z,4.00
2018-09-19T19:37:20.346Z,4.90
2018-09-19T19:39:48.421Z,5.00
2018-09-19T19:42:16.428Z,4.30
2018-09-19T19:44:44.495Z,4.87
2018-09-19T19:47:12.586Z,4.37
2018-09-19T19:49:40.592Z,3.83
2018-09-19T19:52:08.606Z,4.90
2018-09-19T19:54:36.636Z,4.40
2018-09-19T19:57:04.812Z,4.00
2018-09-19T19:59:32.981Z,3.77
2018-09-19T20:02:00.989Z,3.47
2018-09-19T20:04:30.017Z,3.97
2018-09-19T20:06:58.040Z,4.60
2018-09-19T20:09:26.076Z,3.90
2018-09-19T20:11:54.255Z,4.07
2018-09-19T20:14:23.348Z,4.30
2018-09-19T20:16:51.385Z,4.70
2018-09-19T20:19:19.415Z,3.30
2018-09-19T20:21:47.442Z,4.17
2018-09-19T20:24:15.739Z,3.73
2018-09-19T20:26:44.858Z,4.30
2018-09-19T20:29:12.927Z,3.70
2018-09-19T20:31:41.535Z,4.33
2018-09-19T20:34:09.978Z,4.37
2018-09-19T20:36:38.653Z,3.93
2018-09-19T20:39:08.947Z,3.40
2018-09-19T20:41:37.357Z,3.30
2018-09-19T20:44:06.002Z,3.80
2018-09-19T20:46:34.525Z,3.77
2018-09-19T20:49:02.893Z,4.40
2018-09-19T20:51:31.508Z,4.10
2018-09-19T20:54:00.023Z,4.30
2018-09-19T20:56:28.696Z,4.50
2018-09-19T20:58:57.287Z,4.90
2018-09-19T21:01:25.604Z,4.60
2018-09-19T21:03:53.672Z,4.53
2018-09-19T21:06:21.725Z,5.17
2018-09-19T21:08:49.761Z,4.33
2018-09-19T21:11:18.804Z,3.87
2018-09-19T21:13:46.967Z,4.13
2018-09-19T21:16:15.109Z,4.50
2018-09-19T21:18:43.201Z,5.40
2018-09-19T21:21:11.248Z,4.97
2018-09-19T21:23:39.284Z,4.40
2018-09-19T21:26:07.320Z,4.20
2018-09-19T21:28:35.494Z,4.50
2018-09-19T21:31:03.932Z,4.57
2018-09-19T21:33:32.105Z,5.87
2018-09-19T21:36:00.158Z,4.10
2018-09-19T21:38:28.201Z,4.33
2018-09-19T21:40:56.300Z,5.67
2018-09-19T21:43:25.310Z,4.73
2018-09-19T21:45:53.456Z,4.30
2018-09-19T21:48:21.547Z,5.50
2018-09-19T21:50:49.878Z,4.90
2018-09-19T21:53:17.937Z,4.30
2018-09-19T21:55:45.948Z,5.03
2018-09-19T21:58:14.050Z,4.03
2018-09-19T22:00:42.268Z,4.80
2018-09-19T22:03:10.317Z,4.43
2018-09-19T22:05:38.341Z,4.90
2018-09-19T22:08:06.461Z,5.13
2018-09-19T22:10:34.472Z,3.60
2018-09-19T22:13:02.513Z,4.03
2018-09-19T22:15:30.538Z,4.63
2018-09-19T22:17:58.986Z,4.53
2018-09-19T22:20:27.029Z,4.93
2018-09-19T22:22:55.029Z,4.50
2018-09-19T22:25:23.082Z,4.53
2018-09-19T22:27:51.085Z,5.20
2018-09-19T22:30:19.097Z,4.63
2018-09-19T22:32:47.104Z,6.10
2018-09-19T22:35:15.153Z,4.73
2018-09-19T22:37:43.178Z,4.07
2018-09-19T22:40:11.491Z,5.03
2018-09-19T22:42:39.529Z,4.00
2018-09-19T22:45:07.700Z,4.30
2018-09-19T22:47:35.708Z,4.77
2018-09-19T22:50:03.725Z,4.53
2018-09-19T22:52:31.885Z,4.83
2018-09-19T22:55:00.453Z,5.13
2018-09-19T22:57:28.496Z,5.20
2018-09-19T22:59:56.574Z,4.50
2018-09-19T23:02:24.618Z,5.07
2018-09-19T23:04:52.836Z,4.67
2018-09-19T23:07:20.946Z,4.20
2018-09-19T23:09:48.985Z,4.43
2018-09-19T23:12:17.065Z,4.30
2018-09-19T23:14:45.101Z,4.47
2018-09-19T23:17:13.162Z,4.10
2018-09-19T23:19:41.156Z,3.80
2018-09-19T23:22:09.188Z,5.50
2018-09-19T23:24:37.185Z,4.67
2018-09-19T23:27:05.197Z,4.83
2018-09-19T23:29:33.207Z,4.43
2018-09-19T23:32:01.238Z,4.40
2018-09-19T23:34:29.257Z,5.23
2018-09-19T23:36:57.391Z,4.47
2018-09-19T23:39:25.516Z,4.20
2018-09-19T23:41:53.540Z,5.37
2018-09-19T23:44:21.586Z,3.83
2018-09-19T23:46:49.619Z,7.13
2018-09-19T23:49:17.626Z,7.47
2018-09-19T23:51:45.619Z,7.40
2018-09-19T23:54:13.725Z,6.90
2018-09-19T23:56:41.745Z,6.33
2018-09-19T23:59:09.785Z,4.97
